createdAt,value
2023-03-07T00:02:18.996Z,97251.53
2023-03-07T00:04:47.179Z,97244.22
2023-03-07T00:07:15.134Z,97248.41
2023-03-07T00:09:42.782Z,97241.63
2023-03-07T00:12:10.459Z,97245.88
2023-03-07T00:14:37.973Z,97249.53
2023-03-07T00:17:05.368Z,97245.16
2023-03-07T00:19:33.097Z,97252.22
2023-03-07T00:22:00.456Z,97247.75
2023-03-07T00:24:27.879Z,97243.19
2023-03-07T00:26:55.206Z,97242.34
2023-03-07T00:29:22.610Z,97237.97
2023-03-07T00:31:50.005Z,97242.25
2023-03-07T00:34:17.344Z,97236.72
2023-03-07T00:36:44.682Z,97231.81
2023-03-07T00:39:13.006Z,97224.63
2023-03-07T00:41:40.303Z,97225.44
2023-03-07T00:44:07.682Z,97235.06
2023-03-07T00:46:35.071Z,97225.84
2023-03-07T00:49:03.893Z,97220.75
2023-03-07T00:51:31.382Z,97219.59
2023-03-07T00:53:59.037Z,97222.84
2023-03-07T00:56:26.807Z,97216.97
2023-03-07T00:58:54.208Z,97211.47
2023-03-07T01:01:24.102Z,97204.66
2023-03-07T01:03:55.704Z,97199.38
2023-03-07T01:06:26.053Z,97203.22
2023-03-07T01:08:56.877Z,97199.44
2023-03-07T01:11:25.291Z,97203.22
2023-03-07T01:13:54.787Z,97202.06
2023-03-07T01:16:24.462Z,97198.09
2023-03-07T01:18:57.834Z,97193.72
2023-03-07T01:21:26.637Z,97198.31
2023-03-07T01:23:54.367Z,97192.28
2023-03-07T01:26:25.051Z,97188.50
2023-03-07T01:28:53.849Z,97194.66
2023-03-07T01:31:21.800Z,97195.72
2023-03-07T01:33:50.372Z,97183.28
2023-03-07T01:36:29.825Z,97181.72
2023-03-07T01:39:06.481Z,97187.78
2023-03-07T01:41:36.377Z,97183.78
2023-03-07T01:44:08.169Z,97194.34
2023-03-07T01:47:02.004Z,97183.63
2023-03-07T01:49:41.052Z,97177.34
2023-03-07T01:52:12.040Z,97183.94
2023-03-07T01:55:03.427Z,97174.75
2023-03-07T01:57:34.529Z,97179.31
2023-03-07T02:00:08.470Z,97176.63
2023-03-07T02:02:42.802Z,97170.75
2023-03-07T02:05:25.313Z,97170.88
2023-03-07T02:07:53.581Z,97164.09
2023-03-07T02:10:25.227Z,97171.34
2023-03-07T02:12:54.367Z,97164.50
2023-03-07T02:15:22.366Z,97157.41
2023-03-07T02:17:50.163Z,97152.59
2023-03-07T02:20:26.606Z,97156.44
2023-03-07T02:22:54.724Z,97150.00
2023-03-07T02:25:34.807Z,97142.78
2023-03-07T02:28:04.509Z,97149.56
2023-03-07T02:30:33.226Z,97143.41
2023-03-07T02:33:00.850Z,97140.69
2023-03-07T02:35:28.495Z,97146.75
2023-03-07T02:38:02.133Z,97144.25
2023-03-07T02:40:30.648Z,97145.63
2023-03-07T02:43:02.009Z,97144.34
2023-03-07T02:45:29.445Z,97143.44
2023-03-07T02:47:56.907Z,97139.44
2023-03-07T02:50:24.236Z,97138.09
2023-03-07T02:52:53.346Z,97134.22
2023-03-07T02:55:20.958Z,97144.78
2023-03-07T02:57:57.975Z,97141.97
2023-03-07T03:00:25.614Z,97135.03
2023-03-07T03:02:53.126Z,97132.13
2023-03-07T03:05:21.237Z,97127.44
2023-03-07T03:07:48.611Z,97125.56
2023-03-07T03:10:16.324Z,97125.97
2023-03-07T03:12:43.844Z,97120.53
2023-03-07T03:15:12.543Z,97120.72
2023-03-07T03:17:39.893Z,97116.34
2023-03-07T03:20:09.381Z,97110.53
2023-03-07T03:22:37.055Z,97104.47
2023-03-07T03:25:08.529Z,97106.47
2023-03-07T03:27:36.496Z,97105.19
2023-03-07T03:30:06.006Z,97109.78
2023-03-07T03:32:36.839Z,97102.38
2023-03-07T03:35:05.373Z,97099.97
2023-03-07T03:37:33.475Z,97110.91
2023-03-07T03:40:01.611Z,97104.13
2023-03-07T03:42:28.923Z,97099.66
2023-03-07T03:44:56.298Z,97099.75
2023-03-07T03:47:23.640Z,97108.50
2023-03-07T03:49:51.000Z,97106.72
2023-03-07T03:52:18.743Z,97103.09
2023-03-07T03:54:46.090Z,97101.88
2023-03-07T03:57:17.835Z,97096.13
2023-03-07T03:59:46.033Z,97095.28
2023-03-07T04:02:15.033Z,97096.22
2023-03-07T04:04:42.617Z,97097.88
2023-03-07T04:07:10.053Z,97092.69
2023-03-07T04:09:37.398Z,97095.91
2023-03-07T04:12:04.974Z,97098.44
2023-03-07T04:14:32.904Z,97093.22
2023-03-07T04:17:00.212Z,97086.31
2023-03-07T04:19:29.441Z,97085.47
2023-03-07T04:21:57.516Z,97082.78
2023-03-07T04:24:24.847Z,97073.69
2023-03-07T04:26:52.218Z,97070.88
2023-03-07T04:29:19.595Z,97078.19
2023-03-07T04:31:59.413Z,97071.81
2023-03-07T04:34:27.308Z,97069.19
2023-03-07T04:36:54.705Z,97072.44
2023-03-07T04:39:22.109Z,97066.50
2023-03-07T04:41:49.545Z,97067.44
2023-03-07T04:44:21.730Z,97067.44
2023-03-07T04:46:49.140Z,97065.47
2023-03-07T04:49:17.175Z,97065.84
2023-03-07T04:51:44.580Z,97061.81
2023-03-07T04:54:14.277Z,97060.34
2023-03-07T04:56:42.332Z,97058.25
2023-03-07T04:59:11.664Z,97054.81
2023-03-07T05:01:39.129Z,97049.88
2023-03-07T05:04:06.904Z,97049.50
2023-03-07T05:06:34.409Z,97043.00
2023-03-07T05:09:02.399Z,97038.53
2023-03-07T05:11:30.083Z,97041.72
2023-03-07T05:13:57.680Z,97039.63
2023-03-07T05:16:25.207Z,97035.97
2023-03-07T05:18:52.603Z,97031.72
2023-03-07T05:21:20.107Z,97045.19
2023-03-07T05:23:47.938Z,97045.28
2023-03-07T05:26:15.396Z,97030.66
2023-03-07T05:28:42.957Z,97029.28
2023-03-07T05:31:10.352Z,97033.56
2023-03-07T05:33:37.928Z,97030.66
2023-03-07T05:36:05.629Z,97027.84
2023-03-07T05:38:33.429Z,97028.28
2023-03-07T05:41:00.973Z,97030.88
2023-03-07T05:43:28.361Z,97024.09
2023-03-07T05:45:56.154Z,97032.97
2023-03-07T05:48:23.770Z,97032.16
2023-03-07T05:50:51.468Z,97028.50
2023-03-07T05:53:19.857Z,97029.13
2023-03-07T05:55:47.596Z,97034.66
2023-03-07T05:58:17.428Z,97029.44
2023-03-07T06:00:46.513Z,97030.28
2023-03-07T06:03:14.507Z,97033.72
2023-03-07T06:05:42.178Z,97031.53
2023-03-07T06:08:09.528Z,97022.97
2023-03-07T06:10:40.009Z,97020.84
2023-03-07T06:13:17.993Z,97021.50
2023-03-07T06:15:45.345Z,97025.03
2023-03-07T06:18:14.674Z,97017.31
2023-03-07T06:20:42.158Z,97013.03
2023-03-07T06:23:11.921Z,97014.50
2023-03-07T06:25:41.175Z,97012.38
2023-03-07T06:28:08.643Z,97016.97
2023-03-07T06:30:36.476Z,97008.72
2023-03-07T06:33:03.992Z,97005.06
2023-03-07T06:35:31.469Z,97009.56
2023-03-07T06:37:59.099Z,97017.06
2023-03-07T06:40:26.552Z,97016.47
2023-03-07T06:42:54.083Z,97015.19
2023-03-07T06:45:21.404Z,97020.91
2023-03-07T06:47:49.015Z,97023.00
2023-03-07T06:50:19.291Z,97023.09
2023-03-07T06:52:51.832Z,97019.34
2023-03-07T06:55:19.955Z,97020.19
2023-03-07T06:57:47.360Z,97019.75
2023-03-07T07:00:15.664Z,97012.66
2023-03-07T07:02:43.168Z,97010.03
2023-03-07T07:05:10.622Z,97020.59
2023-03-07T07:07:38.272Z,97017.88
2023-03-07T07:10:05.886Z,97013.47
2023-03-07T07:12:33.490Z,97016.81
2023-03-07T07:15:02.297Z,97020.03
2023-03-07T07:17:30.312Z,97013.44
2023-03-07T07:19:58.001Z,97016.28
2023-03-07T07:22:25.408Z,97017.09
2023-03-07T07:24:52.733Z,97017.81
2023-03-07T07:27:20.161Z,97016.81
2023-03-07T07:29:48.351Z,97014.03
2023-03-07T07:32:16.047Z,97017.03
2023-03-07T07:34:43.662Z,97017.66
2023-03-07T07:37:11.179Z,97024.72
2023-03-07T07:39:41.526Z,97014.75
2023-03-07T07:42:08.944Z,97015.72
2023-03-07T07:44:48.307Z,97009.31
2023-03-07T07:47:15.920Z,97004.22
2023-03-07T07:49:43.458Z,97007.97
2023-03-07T07:52:11.136Z,97008.00
2023-03-07T07:54:39.950Z,97000.75
2023-03-07T07:57:07.800Z,97007.16
2023-03-07T07:59:35.328Z,97014.31
2023-03-07T08:02:03.740Z,97013.72
2023-03-07T08:04:31.213Z,97013.41
2023-03-07T08:06:58.558Z,97007.09
2023-03-07T08:09:25.884Z,97011.97
2023-03-07T08:11:53.273Z,97006.38
2023-03-07T08:14:20.612Z,97000.13
2023-03-07T08:16:47.912Z,96994.63
2023-03-07T08:19:15.334Z,96994.06
2023-03-07T08:21:42.725Z,96989.78
2023-03-07T08:24:09.684Z,96994.78
2023-03-07T08:26:36.658Z,96993.13
2023-03-07T08:29:04.038Z,96987.06
2023-03-07T08:31:31.452Z,96988.25
2023-03-07T08:33:58.873Z,96984.06
2023-03-07T08:36:26.214Z,96991.81
2023-03-07T08:38:53.663Z,96978.22
2023-03-07T08:41:22.072Z,96973.34
2023-03-07T08:43:49.629Z,96980.66
2023-03-07T08:46:17.197Z,96974.25
2023-03-07T08:48:44.684Z,96972.97
2023-03-07T08:51:15.738Z,96958.13
2023-03-07T08:53:44.349Z,96971.31
2023-03-07T08:56:13.622Z,96963.59
2023-03-07T08:58:41.792Z,96965.72
2023-03-07T09:01:10.234Z,96961.19
2023-03-07T09:03:37.867Z,96967.91
2023-03-07T09:06:05.938Z,96955.69
2023-03-07T09:08:33.750Z,96953.53
2023-03-07T09:11:03.539Z,96957.59
2023-03-07T09:13:33.027Z,96948.13
2023-03-07T09:16:05.480Z,96952.28
2023-03-07T09:18:33.938Z,96947.69
2023-03-07T09:21:02.485Z,96951.09
2023-03-07T09:23:29.997Z,96945.84
2023-03-07T09:26:01.478Z,96937.00
2023-03-07T09:28:28.887Z,96933.56
2023-03-07T09:30:56.293Z,96940.19
2023-03-07T09:33:23.931Z,96938.38
2023-03-07T09:35:51.344Z,96933.69
2023-03-07T09:38:18.845Z,96939.91
2023-03-07T09:40:47.863Z,96938.53
2023-03-07T09:43:27.179Z,96937.81
2023-03-07T09:46:50.556Z,96930.63
2023-03-07T09:49:42.295Z,96923.03
2023-03-07T09:52:21.110Z,96923.28
2023-03-07T09:54:57.471Z,96924.25
2023-03-07T09:57:33.470Z,96915.44
2023-03-07T10:00:07.115Z,96920.91
2023-03-07T10:03:03.830Z,96919.09
2023-03-07T10:05:40.483Z,96914.94
2023-03-07T10:08:16.058Z,96921.09
2023-03-07T10:10:48.940Z,96919.00
2023-03-07T10:13:41.139Z,96922.34
2023-03-07T10:16:38.871Z,96904.31
2023-03-07T10:19:44.886Z,96913.50
2023-03-07T10:22:27.790Z,96905.94
2023-03-07T10:25:07.472Z,96900.84
2023-03-07T10:27:34.922Z,96914.59
2023-03-07T10:30:12.224Z,96910.78
2023-03-07T10:32:52.025Z,96908.06
2023-03-07T10:35:21.823Z,96898.78
2023-03-07T10:37:55.130Z,96898.53
2023-03-07T10:40:44.098Z,96889.53
2023-03-07T10:43:23.460Z,96897.72
2023-03-07T10:45:52.922Z,96897.25
2023-03-07T10:48:21.560Z,96899.31
2023-03-07T10:51:08.839Z,96894.56
2023-03-07T10:53:37.886Z,96895.66
2023-03-07T10:56:17.110Z,96903.31
2023-03-07T10:59:09.541Z,96893.47
2023-03-07T11:01:38.724Z,96891.44
2023-03-07T11:04:22.364Z,96893.53
2023-03-07T11:06:53.520Z,96885.38
2023-03-07T11:09:23.931Z,96885.91
2023-03-07T11:11:51.235Z,96889.09
2023-03-07T11:14:19.257Z,96884.81
2023-03-07T11:16:49.660Z,96878.38
2023-03-07T11:19:40.817Z,96884.38
2023-03-07T11:22:21.629Z,96879.75
2023-03-07T11:24:57.751Z,96882.25
2023-03-07T11:27:47.218Z,96881.94
2023-03-07T11:30:20.746Z,96873.34
2023-03-07T11:33:15.842Z,96871.00
2023-03-07T11:36:00.174Z,96866.47
2023-03-07T11:38:45.942Z,96858.09
2023-03-07T11:41:25.418Z,96862.50
2023-03-07T11:44:05.656Z,96858.41
2023-03-07T11:46:39.310Z,96852.53
2023-03-07T11:49:12.796Z,96856.31
2023-03-07T11:51:44.316Z,96852.22
2023-03-07T11:54:32.674Z,96857.78
2023-03-07T11:57:16.166Z,96856.25
2023-03-07T12:00:11.445Z,96866.53
2023-03-07T12:03:05.398Z,96857.72
2023-03-07T12:05:51.601Z,96842.88
2023-03-07T12:08:42.069Z,96843.03
2023-03-07T12:11:09.398Z,96847.88
2023-03-07T12:14:11.324Z,96840.13
2023-03-07T12:17:06.684Z,96836.91
2023-03-07T12:19:43.624Z,96834.56
2023-03-07T12:22:28.882Z,96831.44
2023-03-07T12:25:16.825Z,96828.00
2023-03-07T12:28:04.435Z,96826.53
2023-03-07T12:30:57.958Z,96819.03
2023-03-07T12:33:55.892Z,96812.31
2023-03-07T12:36:34.693Z,96810.28
2023-03-07T12:39:02.021Z,96804.84
2023-03-07T12:41:54.160Z,96808.34
2023-03-07T12:44:35.369Z,96799.78
2023-03-07T12:47:21.221Z,96799.31
2023-03-07T12:50:04.925Z,96791.69
2023-03-07T12:52:46.341Z,96783.84
2023-03-07T12:55:36.338Z,96771.69
2023-03-07T12:58:26.215Z,96777.94
2023-03-07T13:01:20.675Z,96769.91
2023-03-07T13:04:03.700Z,96773.75
2023-03-07T13:06:31.777Z,96765.47
2023-03-07T13:09:01.604Z,96771.13
2023-03-07T13:11:31.467Z,96750.00
2023-03-07T13:14:01.084Z,96750.41
2023-03-07T13:16:44.448Z,96746.25
2023-03-07T13:19:30.797Z,96744.28
2023-03-07T13:21:58.860Z,96745.41
2023-03-07T13:24:39.929Z,96743.88
2023-03-07T13:27:26.088Z,96730.41
2023-03-07T13:30:10.150Z,96740.56
2023-03-07T13:32:52.340Z,96747.22
2023-03-07T13:35:29.005Z,96746.91
2023-03-07T13:38:05.380Z,96747.22
2023-03-07T13:40:35.773Z,96752.19
2023-03-07T13:43:22.244Z,96751.38
2023-03-07T13:46:03.174Z,96748.59
2023-03-07T13:48:30.697Z,96751.22
2023-03-07T13:51:01.271Z,96742.53
2023-03-07T13:53:31.374Z,96755.09
2023-03-07T13:56:17.210Z,96752.75
2023-03-07T13:59:09.599Z,96754.72
2023-03-07T14:01:42.682Z,96743.22
2023-03-07T14:04:39.458Z,96747.91
2023-03-07T14:07:28.121Z,96743.06
2023-03-07T14:10:30.529Z,96749.28
2023-03-07T14:13:29.512Z,96745.53
2023-03-07T14:16:11.673Z,96753.28
2023-03-07T14:18:51.083Z,96754.00
2023-03-07T14:21:38.334Z,96759.50
2023-03-07T14:24:43.292Z,96754.22
2023-03-07T14:27:15.143Z,96762.31
2023-03-07T14:29:53.258Z,96762.19
2023-03-07T14:32:29.323Z,96773.09
2023-03-07T14:34:57.289Z,96770.59
2023-03-07T14:37:29.669Z,96777.22
2023-03-07T14:40:02.173Z,96781.25
2023-03-07T14:43:03.176Z,96771.69
2023-03-07T14:45:45.961Z,96775.41
2023-03-07T14:48:32.008Z,96774.06
2023-03-07T14:51:12.051Z,96774.34
2023-03-07T14:53:39.969Z,96767.06
2023-03-07T14:56:08.542Z,96763.22
2023-03-07T14:58:40.234Z,96763.22
2023-03-07T15:01:14.492Z,96750.38
2023-03-07T15:03:52.940Z,96747.22
2023-03-07T15:06:23.363Z,96743.59
2023-03-07T15:08:52.262Z,96745.13
2023-03-07T15:11:36.410Z,96751.63
2023-03-07T15:14:20.357Z,96751.75
2023-03-07T15:16:54.971Z,96745.00
2023-03-07T15:19:32.665Z,96753.75
2023-03-07T15:22:01.939Z,96744.94
2023-03-07T15:24:37.985Z,96747.16
2023-03-07T15:27:08.068Z,96752.22
2023-03-07T15:29:35.493Z,96743.97
2023-03-07T15:32:06.967Z,96752.81
2023-03-07T15:34:36.570Z,96749.63
2023-03-07T15:37:26.682Z,96749.00
2023-03-07T15:39:58.528Z,96753.16
2023-03-07T15:42:26.322Z,96750.16
2023-03-07T15:45:00.429Z,96746.25
2023-03-07T15:47:29.992Z,96749.41
2023-03-07T15:50:02.309Z,96749.75
2023-03-07T15:52:35.691Z,96741.63
2023-03-07T15:55:05.610Z,96758.56
2023-03-07T15:57:39.155Z,96759.28
2023-03-07T16:00:21.500Z,96756.66
2023-03-07T16:02:49.968Z,96756.09
2023-03-07T16:05:21.778Z,96750.28
2023-03-07T16:07:55.027Z,96738.56
2023-03-07T16:10:27.153Z,96759.28
2023-03-07T16:12:54.645Z,96758.72
2023-03-07T16:15:23.829Z,96768.91
2023-03-07T16:17:56.496Z,96759.53
2023-03-07T16:20:28.530Z,96758.41
2023-03-07T16:22:56.861Z,96757.84
2023-03-07T16:25:26.289Z,96761.56
2023-03-07T16:27:56.556Z,96771.34
2023-03-07T16:30:26.423Z,96762.91
2023-03-07T16:32:54.266Z,96770.06
2023-03-07T16:35:24.503Z,96765.91
2023-03-07T16:37:52.240Z,96761.38
2023-03-07T16:40:20.752Z,96771.31
2023-03-07T16:42:50.618Z,96768.25
2023-03-07T16:45:26.008Z,96776.06
2023-03-07T16:47:55.337Z,96776.91
2023-03-07T16:50:25.762Z,96782.25
2023-03-07T16:52:53.219Z,96794.94
2023-03-07T16:55:21.300Z,96780.72
2023-03-07T16:58:01.363Z,96788.00
2023-03-07T17:00:29.184Z,96791.44
2023-03-07T17:03:00.297Z,96793.47
2023-03-07T17:05:28.865Z,96790.03
2023-03-07T17:07:57.244Z,96798.41
2023-03-07T17:10:26.658Z,96798.66
2023-03-07T17:12:58.379Z,96793.94
2023-03-07T17:15:30.446Z,96803.59
2023-03-07T17:17:59.241Z,96788.63
2023-03-07T17:20:26.988Z,96792.25
2023-03-07T17:22:54.507Z,96794.69
2023-03-07T17:25:22.707Z,96800.03
2023-03-07T17:28:12.610Z,96801.13
2023-03-07T17:30:43.009Z,96808.53
2023-03-07T17:33:11.479Z,96809.78
2023-03-07T17:35:38.892Z,96809.44
2023-03-07T17:38:06.491Z,96818.63
2023-03-07T17:40:33.817Z,96820.88
2023-03-07T17:43:01.499Z,96818.66
2023-03-07T17:45:28.897Z,96829.63
2023-03-07T17:47:56.743Z,96832.75
2023-03-07T17:50:24.927Z,96835.00
2023-03-07T17:52:54.351Z,96839.44
2023-03-07T17:55:24.905Z,96842.66
2023-03-07T17:57:52.524Z,96842.31
2023-03-07T18:00:21.053Z,96838.88
2023-03-07T18:02:48.846Z,96847.28
2023-03-07T18:05:16.883Z,96841.00
2023-03-07T18:07:44.206Z,96847.44
2023-03-07T18:10:12.637Z,96852.69
2023-03-07T18:12:40.196Z,96853.38
2023-03-07T18:15:12.423Z,96850.78
2023-03-07T18:17:47.875Z,96846.41
2023-03-07T18:20:17.846Z,96853.53
2023-03-07T18:22:45.484Z,96853.06
2023-03-07T18:25:14.713Z,96857.31
2023-03-07T18:27:42.170Z,96853.78
2023-03-07T18:30:11.901Z,96860.19
2023-03-07T18:32:39.496Z,96855.19
2023-03-07T18:35:07.860Z,96848.19
2023-03-07T18:37:35.226Z,96853.16
2023-03-07T18:40:02.881Z,96858.41
2023-03-07T18:42:30.597Z,96856.56
2023-03-07T18:44:57.906Z,96859.44
2023-03-07T18:47:25.307Z,96855.38
2023-03-07T18:49:52.793Z,96865.25
2023-03-07T18:52:20.309Z,96874.28
2023-03-07T18:54:49.042Z,96872.47
2023-03-07T18:57:16.462Z,96870.47
2023-03-07T18:59:43.771Z,96879.16
2023-03-07T19:02:11.532Z,96878.31
2023-03-07T19:04:39.036Z,96885.97
2023-03-07T19:07:06.387Z,96891.41
2023-03-07T19:09:33.710Z,96891.41
2023-03-07T19:12:01.304Z,96892.38
2023-03-07T19:14:28.722Z,96892.63
2023-03-07T19:16:56.039Z,96906.66
2023-03-07T19:19:23.329Z,96900.13
2023-03-07T19:21:50.831Z,96905.72
2023-03-07T19:24:18.196Z,96904.50
2023-03-07T19:26:45.612Z,96905.00
2023-03-07T19:29:13.192Z,96904.13
2023-03-07T19:31:43.759Z,96904.50
2023-03-07T19:34:11.652Z,96895.94
2023-03-07T19:36:41.452Z,96898.34
2023-03-07T19:39:10.444Z,96904.75
2023-03-07T19:41:39.617Z,96894.03
2023-03-07T19:44:12.060Z,96902.59
2023-03-07T19:46:39.688Z,96910.69
2023-03-07T19:49:07.982Z,96916.41
2023-03-07T19:51:35.771Z,96920.81
2023-03-07T19:54:04.276Z,96913.53
2023-03-07T19:56:32.341Z,96913.53
2023-03-07T19:59:01.430Z,96916.97
2023-03-07T20:01:30.147Z,96917.47
2023-03-07T20:03:57.839Z,96914.97
2023-03-07T20:06:29.645Z,96922.09
2023-03-07T20:08:58.267Z,96919.94
2023-03-07T20:11:28.487Z,96917.13
2023-03-07T20:13:57.552Z,96921.03
2023-03-07T20:16:27.654Z,96922.22
2023-03-07T20:18:58.059Z,96926.63
2023-03-07T20:21:28.159Z,96931.03
2023-03-07T20:23:59.335Z,96916.50
2023-03-07T20:26:32.406Z,96907.72
2023-03-07T20:29:00.340Z,96913.78
2023-03-07T20:31:28.067Z,96910.94
2023-03-07T20:33:57.026Z,96907.38
2023-03-07T20:36:29.419Z,96912.59
2023-03-07T20:38:59.121Z,96921.16
2023-03-07T20:41:31.382Z,96915.31
2023-03-07T20:44:04.251Z,96911.78
2023-03-07T20:46:32.706Z,96922.81
2023-03-07T20:49:01.253Z,96929.75
2023-03-07T20:51:33.993Z,96932.22
2023-03-07T20:54:03.215Z,96933.41
2023-03-07T20:56:33.157Z,96929.94
2023-03-07T20:59:00.783Z,96932.94
2023-03-07T21:01:30.624Z,96931.28
2023-03-07T21:04:05.969Z,96927.47
2023-03-07T21:06:34.734Z,96940.56
2023-03-07T21:09:06.274Z,96936.88
2023-03-07T21:11:34.263Z,96937.81
2023-03-07T21:14:02.077Z,96935.53
2023-03-07T21:16:30.014Z,96936.72
2023-03-07T21:19:01.889Z,96934.94
2023-03-07T21:21:30.277Z,96933.66
2023-03-07T21:23:58.003Z,96939.00
2023-03-07T21:26:30.455Z,96939.47
2023-03-07T21:28:58.603Z,96944.69
2023-03-07T21:31:28.708Z,96950.19
2023-03-07T21:33:58.228Z,96949.47
2023-03-07T21:36:29.320Z,96956.13
2023-03-07T21:38:57.316Z,96954.22
2023-03-07T21:41:25.318Z,96968.03
2023-03-07T21:43:56.606Z,96965.56
2023-03-07T21:46:24.607Z,96983.25
2023-03-07T21:48:52.181Z,96979.22
2023-03-07T21:51:19.703Z,96982.19
2023-03-07T21:53:47.106Z,96990.03
2023-03-07T21:56:19.371Z,96991.47
2023-03-07T21:58:50.614Z,96986.56
2023-03-07T22:01:28.897Z,96986.34
2023-03-07T22:03:58.440Z,96987.16
2023-03-07T22:06:26.553Z,96989.44
2023-03-07T22:08:54.151Z,96993.25
2023-03-07T22:11:21.763Z,96992.88
2023-03-07T22:13:49.214Z,96990.75
2023-03-07T22:16:21.148Z,96995.50
2023-03-07T22:18:55.725Z,96995.50
2023-03-07T22:21:26.184Z,96993.75
2023-03-07T22:23:58.431Z,96996.00
2023-03-07T22:26:26.870Z,97000.63
2023-03-07T22:28:55.012Z,97004.41
2023-03-07T22:31:22.541Z,96998.50
2023-03-07T22:33:50.034Z,96995.63
2023-03-07T22:36:17.603Z,96988.50
2023-03-07T22:38:45.578Z,97001.81
2023-03-07T22:41:16.799Z,96998.13
2023-03-07T22:43:44.388Z,96990.50
2023-03-07T22:46:12.130Z,97004.28
2023-03-07T22:48:40.041Z,96999.44
2023-03-07T22:51:20.530Z,96998.72
2023-03-07T22:53:48.142Z,96992.75
2023-03-07T22:56:21.523Z,96994.78
2023-03-07T22:58:49.079Z,96977.31
2023-03-07T23:01:22.016Z,96982.06
2023-03-07T23:03:50.457Z,96984.22
2023-03-07T23:06:18.761Z,96996.69
2023-03-07T23:08:51.007Z,96995.88
2023-03-07T23:11:19.784Z,96999.44
2023-03-07T23:13:47.671Z,96997.88
2023-03-07T23:16:17.783Z,97010.72
2023-03-07T23:18:45.908Z,97013.69
2023-03-07T23:21:15.455Z,97020.94
2023-03-07T23:23:43.181Z,97022.38
2023-03-07T23:26:15.453Z,97033.31
2023-03-07T23:28:42.869Z,97020.94
2023-03-07T23:31:21.647Z,97031.66
2023-03-07T23:33:58.676Z,97030.84
2023-03-07T23:36:27.603Z,97027.72
2023-03-07T23:38:55.418Z,97026.88
2023-03-07T23:41:23.740Z,97024.75
2023-03-07T23:43:55.666Z,97034.28
2023-03-07T23:46:23.693Z,97027.63
2023-03-07T23:48:51.595Z,97024.16
2023-03-07T23:51:19.415Z,97030.13
2023-03-07T23:53:46.772Z,97032.84
2023-03-07T23:56:14.791Z,97030.13
2023-03-07T23:58:43.945Z,97029.25
